createdAt,value
2018-09-26T00:00:12.321Z,84.12
2018-09-26T00:01:12.329Z,83.91
2018-09-26T00:02:12.297Z,83.71
2018-09-26T00:03:12.291Z,84.01
2018-09-26T00:04:12.276Z,84.01
2018-09-26T00:05:12.283Z,83.50
2018-09-26T00:06:12.296Z,83.19
2018-09-26T00:07:12.248Z,83.29
2018-09-26T00:08:12.233Z,83.50
2018-09-26T00:09:12.219Z,83.61
2018-09-26T00:10:12.218Z,82.54
2018-09-26T00:11:12.203Z,82.89
2018-09-26T00:12:12.216Z,83.40
2018-09-26T00:13:12.186Z,82.68
2018-09-26T00:14:12.165Z,82.26
2018-09-26T00:15:12.159Z,83.50
2018-09-26T00:16:12.151Z,82.89
2018-09-26T00:17:12.159Z,82.23
2018-09-26T00:18:12.140Z,82.74
2018-09-26T00:19:12.114Z,82.33
2018-09-26T00:20:12.121Z,82.33
2018-09-26T00:21:12.092Z,82.33
2018-09-26T00:22:12.099Z,82.33
2018-09-26T00:23:12.073Z,82.43
2018-09-26T00:24:12.081Z,82.02
2018-09-26T00:25:12.072Z,82.23
2018-09-26T00:26:12.037Z,82.02
2018-09-26T00:27:12.031Z,82.02
2018-09-26T00:28:12.015Z,81.92
2018-09-26T00:29:12.030Z,81.61
2018-09-26T00:30:12.001Z,81.30
2018-09-26T00:31:11.988Z,81.61
2018-09-26T00:32:11.975Z,81.71
2018-09-26T00:33:11.962Z,81.61
2018-09-26T00:34:11.977Z,81.51
2018-09-26T00:35:11.945Z,81.57
2018-09-26T00:36:12.268Z,81.57
2018-09-26T00:37:11.925Z,81.37
2018-09-26T00:38:11.908Z,81.16
2018-09-26T00:39:11.925Z,81.37
2018-09-26T00:40:11.914Z,81.57
2018-09-26T00:41:11.876Z,81.05
2018-09-26T00:42:11.872Z,81.20
2018-09-26T00:43:11.868Z,81.37
2018-09-26T00:44:11.848Z,81.16
2018-09-26T00:45:11.864Z,81.47
2018-09-26T00:46:11.823Z,81.47
2018-09-26T00:47:11.820Z,81.16
2018-09-26T00:48:11.804Z,81.67
2018-09-26T00:49:11.810Z,81.67
2018-09-26T00:50:11.783Z,81.37
2018-09-26T00:51:11.789Z,81.47
2018-09-26T00:52:11.781Z,81.26
2018-09-26T00:53:11.748Z,81.98
2018-09-26T00:54:11.760Z,81.81
2018-09-26T00:55:11.739Z,82.33
2018-09-26T00:56:11.721Z,82.12
2018-09-26T00:57:11.710Z,82.84
2018-09-26T00:58:11.692Z,83.15
2018-09-26T00:59:11.700Z,82.84
2018-09-26T01:00:11.677Z,83.81
2018-09-26T01:01:11.659Z,84.12
2018-09-26T01:02:11.658Z,84.64
2018-09-26T01:03:11.642Z,84.74
2018-09-26T01:04:11.647Z,84.84
2018-09-26T01:05:11.618Z,85.15
2018-09-26T01:06:11.612Z,85.87
2018-09-26T01:07:11.602Z,86.18
2018-09-26T01:08:11.601Z,86.43
2018-09-26T01:09:11.600Z,86.02
2018-09-26T01:10:11.562Z,86.74
2018-09-26T01:11:11.555Z,86.57
2018-09-26T01:12:11.552Z,87.08
2018-09-26T01:13:11.537Z,87.50
2018-09-26T01:14:11.544Z,87.15
2018-09-26T01:15:11.513Z,87.60
2018-09-26T01:16:11.521Z,88.64
2018-09-26T01:17:11.517Z,88.53
2018-09-26T01:18:11.480Z,88.53
2018-09-26T01:19:11.468Z,88.43
2018-09-26T01:20:11.493Z,88.78
2018-09-26T01:21:11.452Z,89.29
2018-09-26T01:22:11.434Z,89.09
2018-09-26T01:23:11.457Z,89.61
2018-09-26T01:24:11.415Z,89.81
2018-09-26T01:25:11.404Z,89.71
2018-09-26T01:26:11.400Z,90.12
2018-09-26T01:27:11.388Z,89.86
2018-09-26T01:28:11.375Z,90.37
2018-09-26T01:29:11.381Z,90.37
2018-09-26T01:30:11.352Z,90.78
2018-09-26T01:31:11.339Z,90.06
2018-09-26T01:32:11.328Z,90.68
2018-09-26T01:33:11.325Z,90.06
2018-09-26T01:34:11.338Z,90.47
2018-09-26T01:35:11.304Z,90.89
2018-09-26T01:36:11.286Z,90.58
2018-09-26T01:37:11.278Z,91.09
2018-09-26T01:38:11.268Z,91.03
2018-09-26T01:39:11.260Z,90.99
2018-09-26T01:40:11.274Z,90.93
2018-09-26T01:41:11.236Z,91.03
2018-09-26T01:42:11.223Z,91.44
2018-09-26T01:43:11.212Z,92.27
2018-09-26T01:44:11.208Z,92.07
2018-09-26T01:45:11.191Z,92.42
2018-09-26T01:46:11.205Z,92.93
2018-09-26T01:47:11.175Z,92.42
2018-09-26T01:48:11.168Z,93.14
2018-09-26T01:49:11.151Z,93.04
2018-09-26T01:50:11.138Z,93.04
2018-09-26T01:51:11.126Z,93.04
2018-09-26T01:52:11.146Z,92.93
2018-09-26T01:53:11.112Z,93.14
2018-09-26T01:54:11.121Z,92.72
2018-09-26T01:55:11.084Z,92.83
2018-09-26T01:56:11.071Z,92.83
2018-09-26T01:57:11.063Z,92.52
2018-09-26T01:58:11.080Z,91.90
2018-09-26T01:59:11.052Z,92.00
2018-09-26T02:00:11.035Z,91.69
2018-09-26T02:01:11.024Z,91.17
2018-09-26T02:02:11.009Z,91.28
2018-09-26T02:03:10.996Z,91.34
2018-09-26T02:04:11.014Z,90.56
2018-09-26T02:05:10.977Z,90.72
2018-09-26T02:06:10.969Z,90.41
2018-09-26T02:07:10.960Z,90.45
2018-09-26T02:08:10.950Z,90.83
2018-09-26T02:09:10.934Z,90.41
2018-09-26T02:10:10.943Z,90.00
2018-09-26T02:11:10.915Z,90.41
2018-09-26T02:12:10.909Z,90.41
2018-09-26T02:13:10.899Z,90.41
2018-09-26T02:14:10.897Z,90.41
2018-09-26T02:15:10.880Z,89.79
2018-09-26T02:16:10.857Z,90.31
2018-09-26T02:17:10.848Z,90.52
2018-09-26T02:18:10.839Z,89.79
2018-09-26T02:19:10.849Z,91.13
2018-09-26T02:20:10.840Z,90.93
2018-09-26T02:21:10.813Z,90.41
2018-09-26T02:22:10.803Z,91.38
2018-09-26T02:23:10.790Z,91.17
2018-09-26T02:24:10.788Z,92.42
2018-09-26T02:25:10.772Z,93.35
2018-09-26T02:26:10.776Z,93.29
2018-09-26T02:27:10.741Z,93.08
2018-09-26T02:28:10.729Z,93.33
2018-09-26T02:29:10.737Z,94.37
2018-09-26T02:30:10.724Z,94.89
2018-09-26T02:31:10.703Z,95.24
2018-09-26T02:32:10.696Z,95.24
2018-09-26T02:33:10.681Z,95.03
2018-09-26T02:34:10.685Z,95.59
2018-09-26T02:35:10.665Z,96.31
2018-09-26T02:36:10.644Z,95.90
2018-09-26T02:37:10.635Z,96.62
2018-09-26T02:38:10.625Z,96.78
2018-09-26T02:39:10.634Z,96.88
2018-09-26T02:40:10.598Z,96.57
2018-09-26T02:41:10.590Z,96.82
2018-09-26T02:42:10.581Z,97.71
2018-09-26T02:43:10.576Z,97.86
2018-09-26T02:44:10.581Z,98.38
2018-09-26T02:45:10.575Z,98.07
2018-09-26T02:46:10.536Z,98.52
2018-09-26T02:47:10.711Z,98.83
2018-09-26T02:48:10.512Z,98.63
2018-09-26T02:49:10.528Z,98.52
2018-09-26T02:50:10.510Z,98.94
2018-09-26T02:51:10.485Z,99.25
2018-09-26T02:52:10.495Z,99.40
2018-09-26T02:53:10.472Z,99.46
2018-09-26T02:54:10.450Z,99.35
2018-09-26T02:55:10.460Z,99.40
2018-09-26T02:56:10.431Z,99.51
2018-09-26T02:57:10.423Z,99.99
2018-09-26T02:58:10.414Z,99.99
2018-09-26T02:59:10.394Z,99.99
2018-09-26T03:00:10.387Z,99.99
2018-09-26T03:01:10.393Z,99.99
2018-09-26T03:02:10.364Z,99.99
2018-09-26T03:03:10.356Z,99.99
2018-09-26T03:04:10.346Z,99.99
2018-09-26T03:05:10.334Z,99.99
2018-09-26T03:06:10.337Z,99.99
2018-09-26T03:07:10.306Z,99.99
2018-09-26T03:08:10.312Z,99.99
2018-09-26T03:09:10.290Z,99.99
2018-09-26T03:10:10.280Z,99.99
2018-09-26T03:11:10.272Z,99.99
2018-09-26T03:12:10.283Z,99.99
2018-09-26T03:13:10.245Z,99.99
2018-09-26T03:14:10.234Z,99.99
2018-09-26T03:15:10.227Z,99.99
2018-09-26T03:16:10.215Z,99.99
2018-09-26T03:17:10.204Z,99.99
2018-09-26T03:18:10.210Z,99.99
2018-09-26T03:19:10.198Z,98.33
2018-09-26T03:20:10.166Z,97.29
2018-09-26T03:21:10.156Z,97.04
2018-09-26T03:22:10.149Z,95.90
2018-09-26T03:23:10.140Z,94.51
2018-09-26T03:24:10.128Z,94.10
2018-09-26T03:25:10.132Z,93.23
2018-09-26T03:26:10.105Z,92.19
2018-09-26T03:27:10.089Z,91.01
2018-09-26T03:28:10.087Z,90.45
2018-09-26T03:29:10.091Z,88.90
2018-09-26T03:30:10.064Z,89.38
2018-09-26T03:31:10.046Z,87.73
2018-09-26T03:32:10.034Z,87.73
2018-09-26T03:33:10.025Z,86.34
2018-09-26T03:34:10.055Z,86.34
2018-09-26T03:35:10.026Z,85.06
2018-09-26T03:36:09.999Z,84.72
2018-09-26T03:37:09.984Z,84.41
2018-09-26T03:38:09.982Z,84.09
2018-09-26T03:39:09.958Z,83.33
2018-09-26T03:40:09.970Z,83.13
2018-09-26T03:41:09.955Z,83.03
2018-09-26T03:42:09.929Z,82.10
2018-09-26T03:43:09.922Z,81.34
2018-09-26T03:44:09.906Z,81.23
2018-09-26T03:45:09.897Z,81.03
2018-09-26T03:46:09.913Z,80.82
2018-09-26T03:47:09.879Z,80.62
2018-09-26T03:48:09.877Z,80.72
2018-09-26T03:49:09.856Z,79.79
2018-09-26T03:50:09.842Z,79.34
2018-09-26T03:51:09.829Z,79.34
2018-09-26T03:52:09.837Z,79.14
2018-09-26T03:53:09.814Z,79.44
2018-09-26T03:54:09.823Z,78.72
2018-09-26T03:55:09.793Z,78.52
2018-09-26T03:56:09.783Z,78.21
2018-09-26T03:57:09.771Z,78.11
2018-09-26T03:58:09.764Z,78.31
2018-09-26T03:59:09.768Z,78.31
2018-09-26T04:00:09.742Z,78.31
2018-09-26T04:01:09.727Z,78.21
2018-09-26T04:02:09.713Z,78.41
2018-09-26T04:03:09.703Z,78.52
2018-09-26T04:04:09.690Z,78.21
2018-09-26T04:05:09.706Z,78.21
2018-09-26T04:06:09.674Z,78.21
2018-09-26T04:07:09.663Z,77.69
2018-09-26T04:08:09.655Z,78.11
2018-09-26T04:09:09.677Z,78.41
2018-09-26T04:10:09.627Z,78.11
2018-09-26T04:11:09.638Z,78.52
2018-09-26T04:12:09.605Z,78.62
2018-09-26T04:13:09.703Z,78.31
2018-09-26T04:14:09.609Z,77.59
2018-09-26T04:15:09.578Z,78.31
2018-09-26T04:16:09.566Z,77.90
2018-09-26T04:17:09.560Z,76.76
2018-09-26T04:18:09.545Z,76.53
2018-09-26T04:19:09.537Z,76.32
2018-09-26T04:20:09.556Z,76.63
2018-09-26T04:21:09.514Z,77.14
2018-09-26T04:22:09.498Z,76.01
2018-09-26T04:23:09.485Z,76.42
2018-09-26T04:24:09.509Z,76.32
2018-09-26T04:25:09.464Z,75.49
2018-09-26T04:26:09.494Z,76.73
2018-09-26T04:27:09.532Z,75.18
2018-09-26T04:28:09.454Z,76.42
2018-09-26T04:29:09.427Z,75.60
2018-09-26T04:30:09.428Z,75.70
2018-09-26T04:31:09.400Z,75.90
2018-09-26T04:32:09.398Z,76.63
2018-09-26T04:33:09.591Z,76.01
2018-09-26T04:34:09.384Z,75.81
2018-09-26T04:35:09.368Z,76.42
2018-09-26T04:36:09.350Z,76.73
2018-09-26T04:37:09.359Z,75.81
2018-09-26T04:38:09.330Z,75.90
2018-09-26T04:39:09.334Z,76.56
2018-09-26T04:40:09.308Z,75.81
2018-09-26T04:41:09.298Z,75.70
2018-09-26T04:42:09.285Z,75.12
2018-09-26T04:43:09.314Z,76.53
2018-09-26T04:44:09.282Z,75.18
2018-09-26T04:45:09.250Z,75.49
2018-09-26T04:46:09.245Z,75.60
2018-09-26T04:47:09.236Z,75.49
2018-09-26T04:48:09.217Z,75.94
2018-09-26T04:49:09.204Z,75.43
2018-09-26T04:50:09.218Z,75.22
2018-09-26T04:51:09.186Z,75.18
2018-09-26T04:52:09.186Z,75.70
2018-09-26T04:53:09.182Z,75.18
2018-09-26T04:54:09.219Z,75.18
2018-09-26T04:55:09.145Z,74.67
2018-09-26T04:56:09.134Z,75.29
2018-09-26T04:57:09.118Z,74.36
2018-09-26T04:58:09.125Z,74.98
2018-09-26T04:59:09.129Z,74.19
2018-09-26T05:00:09.096Z,74.60
2018-09-26T05:01:09.082Z,74.26
2018-09-26T05:02:09.067Z,74.26
2018-09-26T05:03:09.064Z,74.26
2018-09-26T05:04:09.064Z,74.26
2018-09-26T05:05:09.043Z,76.35
2018-09-26T05:06:09.021Z,75.12
2018-09-26T05:07:09.015Z,74.60
2018-09-26T05:08:09.013Z,74.29
2018-09-26T05:09:09.018Z,75.43
2018-09-26T05:10:08.994Z,75.12
2018-09-26T05:11:09.000Z,74.80
2018-09-26T05:12:09.004Z,74.60
2018-09-26T05:13:08.958Z,74.19
2018-09-26T05:14:08.959Z,74.29
2018-09-26T05:15:08.929Z,74.08
2018-09-26T05:16:08.968Z,74.19
2018-09-26T05:17:08.940Z,74.19
2018-09-26T05:18:08.898Z,74.29
2018-09-26T05:19:08.911Z,74.08
2018-09-26T05:20:08.872Z,74.40
2018-09-26T05:21:08.860Z,74.40
2018-09-26T05:22:08.856Z,74.29
2018-09-26T05:23:08.849Z,75.63
2018-09-26T05:24:08.831Z,74.71
2018-09-26T05:25:08.852Z,74.50
2018-09-26T05:26:08.805Z,75.43
2018-09-26T05:27:08.798Z,74.19
2018-09-26T05:28:08.791Z,74.91
2018-09-26T05:29:08.785Z,74.19
2018-09-26T05:30:08.769Z,73.85
2018-09-26T05:31:08.782Z,73.54
2018-09-26T05:32:08.747Z,73.02
2018-09-26T05:33:08.761Z,72.81
2018-09-26T05:34:08.720Z,73.23
2018-09-26T05:35:08.712Z,73.85
2018-09-26T05:36:08.701Z,74.57
2018-09-26T05:37:08.721Z,73.13
2018-09-26T05:38:08.703Z,73.13
2018-09-26T05:39:08.670Z,74.36
2018-09-26T05:40:08.656Z,74.26
2018-09-26T05:41:08.642Z,74.36
2018-09-26T05:42:08.641Z,75.29
2018-09-26T05:43:08.655Z,75.90
2018-09-26T05:44:08.615Z,75.22
2018-09-26T05:45:08.629Z,76.46
2018-09-26T05:46:08.593Z,76.56
2018-09-26T05:47:08.612Z,75.22
2018-09-26T05:48:08.572Z,74.50
2018-09-26T05:49:08.624Z,73.36
2018-09-26T05:50:08.596Z,73.47
2018-09-26T05:51:08.544Z,76.97
2018-09-26T05:52:08.538Z,78.62
2018-09-26T05:53:08.517Z,78.00
2018-09-26T05:54:08.513Z,78.83
2018-09-26T05:55:08.542Z,77.48
2018-09-26T05:56:08.495Z,78.97
2018-09-26T05:57:08.535Z,78.66
2018-09-26T05:58:08.461Z,79.38
2018-09-26T05:59:08.452Z,74.33
2018-09-26T06:00:08.458Z,76.90
2018-09-26T06:01:08.565Z,76.56
2018-09-26T06:02:08.438Z,78.72
2018-09-26T06:03:08.421Z,79.03
2018-09-26T06:04:08.420Z,76.76
2018-09-26T06:05:08.398Z,75.39
2018-09-26T06:06:08.381Z,73.43
2018-09-26T06:07:08.366Z,73.91
2018-09-26T06:08:08.357Z,73.91
2018-09-26T06:09:08.365Z,73.78
2018-09-26T06:10:08.353Z,71.41
2018-09-26T06:11:08.331Z,72.24
2018-09-26T06:12:08.314Z,70.86
2018-09-26T06:13:08.352Z,69.53
2018-09-26T06:14:08.317Z,69.80
2018-09-26T06:15:08.297Z,70.11
2018-09-26T06:16:08.273Z,68.43
2018-09-26T06:17:08.267Z,69.46
2018-09-26T06:18:08.245Z,67.99
2018-09-26T06:19:08.310Z,67.27
2018-09-26T06:20:08.264Z,67.99
2018-09-26T06:21:08.217Z,67.96
2018-09-26T06:22:08.209Z,67.79
2018-09-26T06:23:08.220Z,65.80
2018-09-26T06:24:08.215Z,68.68
2018-09-26T06:25:08.173Z,68.48
2018-09-26T06:26:08.186Z,69.29
2018-09-26T06:27:08.156Z,66.63
2018-09-26T06:28:08.142Z,66.52
2018-09-26T06:29:08.147Z,66.01
2018-09-26T06:30:08.117Z,67.00
2018-09-26T06:31:08.125Z,68.24
2018-09-26T06:32:08.122Z,67.21
2018-09-26T06:33:08.157Z,66.28
2018-09-26T06:34:08.135Z,65.36
2018-09-26T06:35:08.140Z,66.39
2018-09-26T06:36:08.086Z,65.06
2018-09-26T06:37:08.046Z,64.41
2018-09-26T06:38:08.027Z,65.74
2018-09-26T06:39:08.056Z,64.82
2018-09-26T06:40:08.010Z,65.33
2018-09-26T06:41:08.002Z,65.03
2018-09-26T06:42:07.985Z,64.51
2018-09-26T06:43:07.979Z,64.31
2018-09-26T06:44:07.984Z,64.92
2018-09-26T06:45:07.952Z,64.31
2018-09-26T06:46:07.950Z,63.56
2018-09-26T06:47:07.965Z,64.69
2018-09-26T06:48:08.141Z,64.61
2018-09-26T06:49:08.936Z,64.17
2018-09-26T06:50:07.977Z,63.35
2018-09-26T06:51:08.209Z,63.66
2018-09-26T06:52:07.939Z,64.48
2018-09-26T06:53:07.968Z,64.79
2018-09-26T06:54:08.004Z,64.17
2018-09-26T06:55:07.861Z,65.41
2018-09-26T06:56:08.936Z,63.87
2018-09-26T06:57:07.883Z,66.74
2018-09-26T06:58:07.866Z,64.07
2018-09-26T06:59:07.834Z,64.89
2018-09-26T07:00:08.878Z,65.41
2018-09-26T07:01:07.939Z,65.48
2018-09-26T07:02:07.770Z,64.48
2018-09-26T07:03:07.781Z,65.27
2018-09-26T07:04:08.442Z,65.48
2018-09-26T07:05:07.769Z,64.97
2018-09-26T07:06:07.840Z,65.48
2018-09-26T07:07:07.814Z,65.17
2018-09-26T07:08:07.761Z,63.73
2018-09-26T07:09:08.321Z,64.25
2018-09-26T07:10:07.731Z,66.30
2018-09-26T07:11:07.693Z,64.94
2018-09-26T07:12:07.700Z,66.27
2018-09-26T07:13:07.670Z,67.60
2018-09-26T07:14:07.643Z,63.70
2018-09-26T07:15:07.647Z,64.83
2018-09-26T07:16:07.726Z,65.96
2018-09-26T07:17:07.686Z,65.14
2018-09-26T07:18:07.610Z,66.34
2018-09-26T07:19:07.592Z,65.42
2018-09-26T07:20:07.581Z,64.09
2018-09-26T07:21:07.667Z,66.64
2018-09-26T07:22:09.375Z,66.03
2018-09-26T07:23:07.605Z,64.39
2018-09-26T07:24:07.586Z,62.55
2018-09-26T07:25:07.523Z,64.26
2018-09-26T07:26:08.308Z,65.18
2018-09-26T07:27:09.326Z,63.24
2018-09-26T07:28:07.506Z,65.59
2018-09-26T07:29:07.501Z,63.03
2018-09-26T07:30:07.474Z,62.59
2018-09-26T07:31:07.494Z,63.62
2018-09-26T07:32:07.515Z,60.55
2018-09-26T07:33:07.441Z,60.75
2018-09-26T07:34:07.437Z,60.31
2018-09-26T07:35:07.414Z,61.13
2018-09-26T07:36:07.414Z,61.44
2018-09-26T07:37:07.412Z,62.36
2018-09-26T07:38:07.419Z,63.15
2018-09-26T07:39:07.424Z,62.77
2018-09-26T07:40:07.429Z,63.04
2018-09-26T07:41:07.356Z,62.26
2018-09-26T07:42:07.440Z,64.48
2018-09-26T07:43:07.361Z,64.20
2018-09-26T07:44:10.337Z,59.57
2018-09-26T07:45:07.311Z,66.42
2018-09-26T07:46:07.337Z,65.53
2018-09-26T07:47:07.369Z,60.39
2018-09-26T07:48:07.321Z,62.84
2018-09-26T07:49:08.311Z,62.84
2018-09-26T07:50:07.285Z,60.90
2018-09-26T07:51:07.244Z,60.19
2018-09-26T07:52:07.240Z,59.47
2018-09-26T07:53:07.915Z,61.28
2018-09-26T07:54:07.225Z,60.05
2018-09-26T07:55:07.200Z,59.75
2018-09-26T07:56:07.219Z,61.08
2018-09-26T07:57:07.210Z,60.87
2018-09-26T07:58:07.172Z,60.67
2018-09-26T07:59:07.245Z,59.00
2018-09-26T08:00:07.255Z,58.80
2018-09-26T08:01:07.156Z,59.41
2018-09-26T08:02:07.963Z,58.19
2018-09-26T08:03:07.124Z,59.21
2018-09-26T08:04:07.114Z,57.88
2018-09-26T08:05:07.874Z,59.31
2018-09-26T08:06:07.178Z,57.68
2018-09-26T08:07:07.167Z,57.55
2018-09-26T08:08:07.176Z,61.43
2018-09-26T08:09:07.098Z,57.14
2018-09-26T08:10:07.055Z,58.78
2018-09-26T08:11:07.105Z,58.44
2018-09-26T08:12:07.022Z,60.38
2018-09-26T08:13:07.012Z,58.95
2018-09-26T08:14:06.993Z,57.93
2018-09-26T08:15:07.816Z,59.97
2018-09-26T08:16:07.250Z,57.93
2018-09-26T08:17:07.374Z,58.44
2018-09-26T08:18:06.990Z,62.59
2018-09-26T08:19:07.802Z,56.48
2018-09-26T08:20:06.990Z,57.80
2018-09-26T08:21:06.951Z,56.99
2018-09-26T08:22:06.913Z,54.64
2018-09-26T08:23:07.316Z,57.80
2018-09-26T08:24:07.100Z,54.74
2018-09-26T08:25:06.902Z,53.29
2018-09-26T08:26:06.894Z,54.31
2018-09-26T08:27:06.853Z,55.81
2018-09-26T08:28:06.847Z,53.27
2018-09-26T08:29:06.849Z,53.75
2018-09-26T08:30:06.831Z,55.07
2018-09-26T08:31:06.827Z,53.34
2018-09-26T08:32:06.798Z,54.57
2018-09-26T08:33:06.806Z,53.14
2018-09-26T08:34:06.807Z,56.37
2018-09-26T08:35:08.479Z,54.87
2018-09-26T08:36:06.824Z,54.74
2018-09-26T08:37:06.794Z,52.71
2018-09-26T08:38:06.786Z,54.00
2018-09-26T08:39:07.331Z,53.19
2018-09-26T08:40:06.759Z,52.08
2018-09-26T08:41:06.782Z,52.68
2018-09-26T08:42:06.737Z,51.03
2018-09-26T08:43:06.686Z,51.77
2018-09-26T08:44:06.750Z,55.00
2018-09-26T08:45:06.751Z,53.78
2018-09-26T08:46:06.721Z,55.40
2018-09-26T08:47:06.674Z,51.14
2018-09-26T08:48:06.642Z,50.52
2018-09-26T08:49:06.650Z,51.64
2018-09-26T08:50:06.818Z,50.73
2018-09-26T08:51:06.594Z,53.78
2018-09-26T08:52:06.581Z,50.83
2018-09-26T08:53:06.570Z,51.54
2018-09-26T08:54:06.589Z,54.49
2018-09-26T08:55:06.617Z,50.90
2018-09-26T08:56:06.572Z,51.62
2018-09-26T08:57:06.535Z,50.81
2018-09-26T08:58:06.541Z,52.53
2018-09-26T08:59:06.507Z,53.22
2018-09-26T09:00:06.508Z,50.68
2018-09-26T09:01:06.532Z,50.17
2018-09-26T09:02:06.477Z,49.76
2018-09-26T09:03:06.585Z,49.05
2018-09-26T09:04:06.463Z,50.45
2018-09-26T09:05:06.449Z,52.81
2018-09-26T09:06:06.445Z,49.46
2018-09-26T09:07:06.440Z,51.79
2018-09-26T09:08:06.412Z,48.85
2018-09-26T09:09:06.400Z,50.88
2018-09-26T09:10:06.494Z,50.96
2018-09-26T09:11:06.828Z,50.65
2018-09-26T09:12:06.368Z,51.34
2018-09-26T09:13:06.367Z,49.62
2018-09-26T09:14:06.350Z,49.21
2018-09-26T09:15:06.339Z,49.82
2018-09-26T09:16:06.354Z,51.24
2018-09-26T09:17:06.341Z,49.01
2018-09-26T09:18:06.333Z,50.84
2018-09-26T09:19:06.287Z,53.85
2018-09-26T09:20:06.309Z,49.92
2018-09-26T09:21:06.466Z,50.84
2018-09-26T09:22:06.273Z,51.46
2018-09-26T09:23:06.247Z,50.76
2018-09-26T09:24:06.261Z,51.75
2018-09-26T09:25:06.223Z,51.54
2018-09-26T09:26:06.253Z,53.67
2018-09-26T09:27:10.452Z,52.05
2018-09-26T09:28:06.198Z,49.21
2018-09-26T09:29:06.445Z,48.50
2018-09-26T09:30:06.170Z,49.82
2018-09-26T09:31:06.162Z,48.93
2018-09-26T09:32:06.321Z,52.15
2018-09-26T09:33:06.213Z,49.74
2018-09-26T09:34:06.128Z,50.86
2018-09-26T09:35:06.730Z,50.43
2018-09-26T09:36:06.149Z,48.91
2018-09-26T09:37:06.128Z,49.54
2018-09-26T09:38:06.153Z,49.13
2018-09-26T09:39:06.087Z,50.76
2018-09-26T09:40:06.099Z,48.93
2018-09-26T09:41:06.065Z,49.03
2018-09-26T09:42:06.042Z,52.25
2018-09-26T09:43:06.044Z,50.33
2018-09-26T09:44:06.149Z,50.81
2018-09-26T09:45:06.030Z,51.21
2018-09-26T09:46:06.082Z,49.90
2018-09-26T09:47:06.056Z,53.32
2018-09-26T09:48:06.054Z,49.57
2018-09-26T09:49:06.017Z,52.08
2018-09-26T09:50:06.044Z,51.37
2018-09-26T09:51:05.994Z,48.83
2018-09-26T09:52:05.940Z,49.34
2018-09-26T09:53:05.928Z,50.13
2018-09-26T09:54:05.947Z,51.53
2018-09-26T09:55:05.907Z,48.69
2018-09-26T09:56:05.934Z,52.21
2018-09-26T09:57:06.848Z,53.83
2018-09-26T09:58:05.919Z,46.83
2018-09-26T09:59:05.921Z,47.86
2018-09-26T10:00:05.914Z,46.52
2018-09-26T10:01:05.844Z,47.74
2018-09-26T10:02:05.829Z,47.03
2018-09-26T10:03:05.961Z,49.48
2018-09-26T10:04:05.837Z,46.62
2018-09-26T10:05:05.850Z,47.03
2018-09-26T10:06:05.812Z,48.67
2018-09-26T10:07:05.778Z,48.36
2018-09-26T10:08:05.838Z,50.16
2018-09-26T10:09:05.770Z,51.98
2018-09-26T10:10:05.820Z,47.94
2018-09-26T10:11:05.753Z,46.52
2018-09-26T10:12:05.718Z,51.86
2018-09-26T10:13:05.722Z,49.43
2018-09-26T10:14:05.721Z,46.40
2018-09-26T10:15:05.708Z,46.09
2018-09-26T10:16:05.697Z,46.40
2018-09-26T10:17:05.661Z,46.54
2018-09-26T10:18:06.301Z,46.44
2018-09-26T10:19:05.731Z,47.15
2018-09-26T10:20:05.692Z,45.65
2018-09-26T10:21:05.701Z,46.06
2018-09-26T10:22:05.606Z,46.79
2018-09-26T10:23:05.598Z,46.06
2018-09-26T10:24:05.636Z,46.67
2018-09-26T10:25:05.613Z,52.03
2018-09-26T10:26:05.650Z,50.51
2018-09-26T10:27:05.614Z,48.69
2018-09-26T10:28:05.580Z,46.87
2018-09-26T10:29:05.612Z,47.88
2018-09-26T10:30:05.833Z,48.18
2018-09-26T10:31:05.577Z,45.96
2018-09-26T10:32:05.507Z,50.31
2018-09-26T10:33:05.504Z,46.99
2018-09-26T10:34:05.542Z,48.91
2018-09-26T10:35:05.514Z,50.34
2018-09-26T10:36:05.764Z,48.39
2018-09-26T10:37:05.467Z,47.58
2018-09-26T10:38:05.469Z,46.87
2018-09-26T10:39:05.452Z,48.00
2018-09-26T10:40:05.409Z,47.80
2018-09-26T10:41:05.408Z,48.41
2018-09-26T10:42:05.393Z,48.82
2018-09-26T10:43:05.383Z,50.03
2018-09-26T10:44:05.405Z,50.74
2018-09-26T10:45:05.377Z,48.90
2018-09-26T10:46:05.348Z,51.62
2018-09-26T10:47:05.348Z,46.84
2018-09-26T10:48:05.364Z,50.29
2018-09-26T10:49:05.387Z,50.57
2018-09-26T10:50:05.508Z,46.92
2018-09-26T10:51:05.300Z,50.46
2018-09-26T10:52:05.288Z,50.64
2018-09-26T10:53:05.271Z,48.42
2018-09-26T10:54:05.261Z,50.16
2018-09-26T10:55:05.265Z,49.35
2018-09-26T10:56:05.340Z,50.34
2018-09-26T10:57:05.234Z,48.34
2018-09-26T10:58:05.283Z,47.94
2018-09-26T10:59:05.270Z,46.95
2018-09-26T11:00:05.265Z,48.16
2018-09-26T11:01:05.404Z,52.92
2018-09-26T11:02:05.234Z,49.98
2018-09-26T11:03:05.166Z,47.94
2018-09-26T11:04:05.194Z,50.37
2018-09-26T11:05:05.144Z,48.54
2018-09-26T11:06:05.146Z,48.57
2018-09-26T11:07:05.120Z,51.98
2018-09-26T11:08:05.163Z,49.58
2018-09-26T11:09:05.842Z,55.02
2018-09-26T11:10:05.185Z,49.45
2018-09-26T11:11:05.090Z,49.96
2018-09-26T11:12:05.077Z,51.25
2018-09-26T11:13:05.074Z,48.22
2018-09-26T11:14:05.125Z,48.62
2018-09-26T11:15:05.096Z,50.01
2018-09-26T11:16:05.042Z,50.44
2018-09-26T11:17:05.011Z,46.50
2018-09-26T11:18:05.002Z,49.41
2018-09-26T11:19:04.985Z,50.14
2018-09-26T11:20:05.017Z,48.30
2018-09-26T11:21:04.969Z,47.91
2018-09-26T11:22:04.971Z,50.04
2018-09-26T11:23:04.966Z,47.71
2018-09-26T11:24:04.936Z,45.39
2018-09-26T11:25:04.943Z,50.14
2018-09-26T11:26:04.918Z,45.67
2018-09-26T11:27:04.897Z,44.17
2018-09-26T11:28:04.905Z,48.72
2018-09-26T11:29:04.911Z,47.39
2018-09-26T11:30:04.906Z,46.96
2018-09-26T11:31:04.854Z,46.23
2018-09-26T11:32:04.864Z,46.23
2018-09-26T11:33:04.858Z,47.95
2018-09-26T11:34:04.840Z,45.40
2018-09-26T11:35:04.839Z,46.51
2018-09-26T11:36:04.805Z,46.89
2018-09-26T11:37:04.792Z,45.10
2018-09-26T11:38:04.826Z,45.22
2018-09-26T11:39:04.773Z,44.64
2018-09-26T11:40:04.778Z,45.95
2018-09-26T11:41:04.749Z,43.71
2018-09-26T11:42:04.743Z,46.53
2018-09-26T11:43:04.739Z,44.98
2018-09-26T11:44:04.797Z,49.31
2018-09-26T11:45:04.704Z,47.86
2018-09-26T11:46:04.733Z,46.02
2018-09-26T11:47:04.689Z,47.91
2018-09-26T11:48:04.679Z,43.12
2018-09-26T11:49:04.775Z,44.13
2018-09-26T11:50:04.705Z,46.47
2018-09-26T11:51:04.634Z,44.75
2018-09-26T11:52:04.674Z,45.16
2018-09-26T11:53:04.616Z,43.24
2018-09-26T11:54:04.634Z,43.62
2018-09-26T11:55:04.599Z,41.83
2018-09-26T11:56:04.678Z,43.54
2018-09-26T11:57:04.579Z,44.23
2018-09-26T11:58:04.577Z,47.75
2018-09-26T11:59:04.551Z,42.64
2018-09-26T12:00:04.567Z,42.03
2018-09-26T12:01:04.584Z,43.95
2018-09-26T12:02:04.563Z,44.13
2018-09-26T12:03:04.556Z,43.42
2018-09-26T12:04:04.524Z,44.81
2018-09-26T12:05:04.538Z,46.02
2018-09-26T12:06:04.511Z,44.23
2018-09-26T12:07:04.576Z,46.06
2018-09-26T12:08:04.495Z,45.64
2018-09-26T12:09:04.533Z,43.32
2018-09-26T12:10:04.452Z,46.77
2018-09-26T12:11:04.491Z,43.06
2018-09-26T12:12:04.435Z,44.05
2018-09-26T12:13:04.398Z,45.56
2018-09-26T12:14:04.403Z,42.61
2018-09-26T12:15:04.865Z,43.00
2018-09-26T12:16:04.418Z,41.69
2018-09-26T12:17:04.409Z,43.60
2018-09-26T12:18:04.394Z,43.79
2018-09-26T12:19:04.406Z,41.77
2018-09-26T12:20:04.387Z,42.05
2018-09-26T12:21:04.424Z,46.38
2018-09-26T12:22:04.325Z,42.33
2018-09-26T12:23:04.318Z,43.44
2018-09-26T12:24:04.495Z,41.33
2018-09-26T12:25:04.302Z,41.93
2018-09-26T12:26:04.297Z,43.95
2018-09-26T12:27:04.288Z,42.24
2018-09-26T12:28:04.275Z,40.83
2018-09-26T12:29:04.272Z,42.33
2018-09-26T12:30:04.262Z,43.14
2018-09-26T12:31:04.209Z,45.98
2018-09-26T12:32:04.212Z,41.75
2018-09-26T12:33:04.178Z,41.15
2018-09-26T12:34:04.235Z,46.28
2018-09-26T12:35:04.171Z,43.34
2018-09-26T12:36:04.211Z,42.54
2018-09-26T12:37:04.177Z,43.66
2018-09-26T12:38:04.149Z,42.96
2018-09-26T12:39:04.126Z,40.77
2018-09-26T12:40:04.173Z,42.78
2018-09-26T12:41:04.103Z,42.78
2018-09-26T12:42:04.091Z,41.35
2018-09-26T12:43:04.066Z,41.63
2018-09-26T12:44:04.055Z,43.62
2018-09-26T12:45:04.044Z,41.91
2018-09-26T12:46:04.080Z,43.90
2018-09-26T12:47:04.046Z,42.61
2018-09-26T12:48:04.041Z,41.53
2018-09-26T12:49:04.034Z,40.02
2018-09-26T12:50:04.019Z,39.92
2018-09-26T12:51:04.093Z,40.73
2018-09-26T12:52:04.005Z,42.41